<?xml version="1.0" encoding="UTF-8" standalone="no" ?>
<gpx xmlns="http://www.topografix.com/GPX/1/1" xmlns:xsi="http://www.w3.org/2001/XMLSchema-instance" xsi:schemaLocation="http://www.topografix.com/GPX/1/1 http://www.topografix.com/GPX/1/1/gpx.xsd" version="1.1" creator="VisuGPX - https://www.visugpx.com">
  <metadata>
    <name>Randonnée du 16/06/2022 à 18:21</name>
    <desc><![CDATA[3è partie de la 3è étape]]></desc>
  </metadata>
  <wpt lat="49.8848" lon="0.89529">
    <ele>18</ele>
    <name><![CDATA[Pigeonnier ]]></name>
  </wpt>
  <trk>
    <name><![CDATA[Randonnée du 16/06/2022 à 18:21]]></name>
    <trkseg>
      <trkpt lat="49.89284" lon="0.87167">
        <ele>7</ele>
        <time>2022-06-16T18:21:48+02:00</time>
      </trkpt>
      <trkpt lat="49.89306" lon="0.87155">
        <ele>7</ele>
        <time>2022-06-16T18:22:06+02:00</time>
      </trkpt>
      <trkpt lat="49.89327" lon="0.87142">
        <ele>7</ele>
        <time>2022-06-16T18:23:23+02:00</time>
      </trkpt>
      <trkpt lat="49.89346" lon="0.87121">
        <ele>7</ele>
        <time>2022-06-16T18:23:41+02:00</time>
      </trkpt>
      <trkpt lat="49.89369" lon="0.87115">
        <ele>5</ele>
        <time>2022-06-16T18:23:58+02:00</time>
      </trkpt>
      <trkpt lat="49.89391" lon="0.87107">
        <ele>4</ele>
        <time>2022-06-16T18:24:17+02:00</time>
      </trkpt>
      <trkpt lat="49.89401" lon="0.87142">
        <ele>3</ele>
        <time>2022-06-16T18:24:38+02:00</time>
      </trkpt>
      <trkpt lat="49.89404" lon="0.87178">
        <ele>3</ele>
        <time>2022-06-16T18:24:57+02:00</time>
      </trkpt>
      <trkpt lat="49.89405" lon="0.87214">
        <ele>3</ele>
        <time>2022-06-16T18:25:51+02:00</time>
      </trkpt>
      <trkpt lat="49.89409" lon="0.87249">
        <ele>2</ele>
        <time>2022-06-16T18:26:06+02:00</time>
      </trkpt>
      <trkpt lat="49.89412" lon="0.87283">
        <ele>3</ele>
        <time>2022-06-16T18:26:24+02:00</time>
      </trkpt>
      <trkpt lat="49.89417" lon="0.87319">
        <ele>4</ele>
        <time>2022-06-16T18:26:43+02:00</time>
      </trkpt>
      <trkpt lat="49.89419" lon="0.87356">
        <ele>4</ele>
        <time>2022-06-16T18:27:03+02:00</time>
      </trkpt>
      <trkpt lat="49.89429" lon="0.87388">
        <ele>3</ele>
        <time>2022-06-16T18:27:22+02:00</time>
      </trkpt>
      <trkpt lat="49.89436" lon="0.87424">
        <ele>2</ele>
        <time>2022-06-16T18:27:39+02:00</time>
      </trkpt>
      <trkpt lat="49.89441" lon="0.8746">
        <ele>2</ele>
        <time>2022-06-16T18:27:59+02:00</time>
      </trkpt>
      <trkpt lat="49.89447" lon="0.87494">
        <ele>2</ele>
        <time>2022-06-16T18:28:17+02:00</time>
      </trkpt>
      <trkpt lat="49.8945" lon="0.8753">
        <ele>2</ele>
        <time>2022-06-16T18:28:33+02:00</time>
      </trkpt>
      <trkpt lat="49.89456" lon="0.87573">
        <ele>3</ele>
        <time>2022-06-16T18:28:51+02:00</time>
      </trkpt>
      <trkpt lat="49.89466" lon="0.87606">
        <ele>4</ele>
        <time>2022-06-16T18:29:11+02:00</time>
      </trkpt>
      <trkpt lat="49.89475" lon="0.87638">
        <ele>6</ele>
        <time>2022-06-16T18:29:32+02:00</time>
      </trkpt>
      <trkpt lat="49.8948" lon="0.87673">
        <ele>8</ele>
        <time>2022-06-16T18:30:06+02:00</time>
      </trkpt>
      <trkpt lat="49.8949" lon="0.87741">
        <ele>13</ele>
        <time>2022-06-16T18:30:46+02:00</time>
      </trkpt>
      <trkpt lat="49.89482" lon="0.87776">
        <ele>16</ele>
        <time>2022-06-16T18:31:10+02:00</time>
      </trkpt>
      <trkpt lat="49.89466" lon="0.87801">
        <ele>18</ele>
        <time>2022-06-16T18:31:26+02:00</time>
      </trkpt>
      <trkpt lat="49.89449" lon="0.87825">
        <ele>19</ele>
        <time>2022-06-16T18:31:42+02:00</time>
      </trkpt>
      <trkpt lat="49.89434" lon="0.87852">
        <ele>20</ele>
        <time>2022-06-16T18:32:02+02:00</time>
      </trkpt>
      <trkpt lat="49.89418" lon="0.87878">
        <ele>21</ele>
        <time>2022-06-16T18:32:19+02:00</time>
      </trkpt>
      <trkpt lat="49.89404" lon="0.87906">
        <ele>21</ele>
        <time>2022-06-16T18:32:36+02:00</time>
      </trkpt>
      <trkpt lat="49.89387" lon="0.87931">
        <ele>22</ele>
        <time>2022-06-16T18:33:15+02:00</time>
      </trkpt>
      <trkpt lat="49.89374" lon="0.87961">
        <ele>23</ele>
        <time>2022-06-16T18:33:34+02:00</time>
      </trkpt>
      <trkpt lat="49.89362" lon="0.87991">
        <ele>23</ele>
        <time>2022-06-16T18:33:51+02:00</time>
      </trkpt>
      <trkpt lat="49.89348" lon="0.8802">
        <ele>23</ele>
        <time>2022-06-16T18:34:08+02:00</time>
      </trkpt>
      <trkpt lat="49.89335" lon="0.8805">
        <ele>24</ele>
        <time>2022-06-16T18:34:24+02:00</time>
      </trkpt>
      <trkpt lat="49.89322" lon="0.8808">
        <ele>24</ele>
        <time>2022-06-16T18:34:40+02:00</time>
      </trkpt>
      <trkpt lat="49.89309" lon="0.8811">
        <ele>24</ele>
        <time>2022-06-16T18:34:56+02:00</time>
      </trkpt>
      <trkpt lat="49.89297" lon="0.88142">
        <ele>24</ele>
        <time>2022-06-16T18:35:14+02:00</time>
      </trkpt>
      <trkpt lat="49.89285" lon="0.88172">
        <ele>24</ele>
        <time>2022-06-16T18:35:33+02:00</time>
      </trkpt>
      <trkpt lat="49.89273" lon="0.88204">
        <ele>25</ele>
        <time>2022-06-16T18:35:50+02:00</time>
      </trkpt>
      <trkpt lat="49.89262" lon="0.88237">
        <ele>25</ele>
        <time>2022-06-16T18:36:05+02:00</time>
      </trkpt>
      <trkpt lat="49.89252" lon="0.88268">
        <ele>26</ele>
        <time>2022-06-16T18:36:21+02:00</time>
      </trkpt>
      <trkpt lat="49.89241" lon="0.883">
        <ele>26</ele>
        <time>2022-06-16T18:36:37+02:00</time>
      </trkpt>
      <trkpt lat="49.8923" lon="0.88334">
        <ele>26</ele>
        <time>2022-06-16T18:36:53+02:00</time>
      </trkpt>
      <trkpt lat="49.8922" lon="0.88365">
        <ele>25</ele>
        <time>2022-06-16T18:37:08+02:00</time>
      </trkpt>
      <trkpt lat="49.89213" lon="0.884">
        <ele>24</ele>
        <time>2022-06-16T18:37:24+02:00</time>
      </trkpt>
      <trkpt lat="49.89207" lon="0.88434">
        <ele>24</ele>
        <time>2022-06-16T18:37:41+02:00</time>
      </trkpt>
      <trkpt lat="49.892" lon="0.88469">
        <ele>24</ele>
        <time>2022-06-16T18:37:57+02:00</time>
      </trkpt>
      <trkpt lat="49.89192" lon="0.88503">
        <ele>24</ele>
        <time>2022-06-16T18:38:12+02:00</time>
      </trkpt>
      <trkpt lat="49.89183" lon="0.88535">
        <ele>24</ele>
        <time>2022-06-16T18:38:28+02:00</time>
      </trkpt>
      <trkpt lat="49.89171" lon="0.88565">
        <ele>24</ele>
        <time>2022-06-16T18:38:44+02:00</time>
      </trkpt>
      <trkpt lat="49.8916" lon="0.88597">
        <ele>24</ele>
        <time>2022-06-16T18:39:00+02:00</time>
      </trkpt>
      <trkpt lat="49.89145" lon="0.88629">
        <ele>23</ele>
        <time>2022-06-16T18:39:16+02:00</time>
      </trkpt>
      <trkpt lat="49.8913" lon="0.88656">
        <ele>22</ele>
        <time>2022-06-16T18:39:33+02:00</time>
      </trkpt>
      <trkpt lat="49.89113" lon="0.88682">
        <ele>21</ele>
        <time>2022-06-16T18:39:49+02:00</time>
      </trkpt>
      <trkpt lat="49.89099" lon="0.88711">
        <ele>20</ele>
        <time>2022-06-16T18:40:05+02:00</time>
      </trkpt>
      <trkpt lat="49.89083" lon="0.88737">
        <ele>20</ele>
        <time>2022-06-16T18:40:23+02:00</time>
      </trkpt>
      <trkpt lat="49.8907" lon="0.88766">
        <ele>19</ele>
        <time>2022-06-16T18:40:39+02:00</time>
      </trkpt>
      <trkpt lat="49.89058" lon="0.88797">
        <ele>19</ele>
        <time>2022-06-16T18:40:55+02:00</time>
      </trkpt>
      <trkpt lat="49.89064" lon="0.88833">
        <ele>20</ele>
        <time>2022-06-16T18:41:18+02:00</time>
      </trkpt>
      <trkpt lat="49.89065" lon="0.88871">
        <ele>22</ele>
        <time>2022-06-16T18:41:38+02:00</time>
      </trkpt>
      <trkpt lat="49.89058" lon="0.88904">
        <ele>24</ele>
        <time>2022-06-16T18:41:55+02:00</time>
      </trkpt>
      <trkpt lat="49.89042" lon="0.88931">
        <ele>25</ele>
        <time>2022-06-16T18:42:13+02:00</time>
      </trkpt>
      <trkpt lat="49.8902" lon="0.88947">
        <ele>26</ele>
        <time>2022-06-16T18:42:29+02:00</time>
      </trkpt>
      <trkpt lat="49.88998" lon="0.88953">
        <ele>27</ele>
        <time>2022-06-16T18:42:45+02:00</time>
      </trkpt>
      <trkpt lat="49.88974" lon="0.88962">
        <ele>27</ele>
        <time>2022-06-16T18:43:02+02:00</time>
      </trkpt>
      <trkpt lat="49.88953" lon="0.88976">
        <ele>28</ele>
        <time>2022-06-16T18:43:18+02:00</time>
      </trkpt>
      <trkpt lat="49.88931" lon="0.88987">
        <ele>29</ele>
        <time>2022-06-16T18:43:34+02:00</time>
      </trkpt>
      <trkpt lat="49.88912" lon="0.89006">
        <ele>30</ele>
        <time>2022-06-16T18:43:56+02:00</time>
      </trkpt>
      <trkpt lat="49.88894" lon="0.8903">
        <ele>30</ele>
        <time>2022-06-16T18:44:13+02:00</time>
      </trkpt>
      <trkpt lat="49.88875" lon="0.8905">
        <ele>29</ele>
        <time>2022-06-16T18:44:28+02:00</time>
      </trkpt>
      <trkpt lat="49.88858" lon="0.89075">
        <ele>30</ele>
        <time>2022-06-16T18:44:41+02:00</time>
      </trkpt>
      <trkpt lat="49.88839" lon="0.89096">
        <ele>30</ele>
        <time>2022-06-16T18:44:58+02:00</time>
      </trkpt>
      <trkpt lat="49.8882" lon="0.89116">
        <ele>28</ele>
        <time>2022-06-16T18:45:15+02:00</time>
      </trkpt>
      <trkpt lat="49.88807" lon="0.89146">
        <ele>28</ele>
        <time>2022-06-16T18:45:31+02:00</time>
      </trkpt>
      <trkpt lat="49.88791" lon="0.89173">
        <ele>27</ele>
        <time>2022-06-16T18:45:51+02:00</time>
      </trkpt>
      <trkpt lat="49.88773" lon="0.89196">
        <ele>27</ele>
        <time>2022-06-16T18:46:02+02:00</time>
      </trkpt>
      <trkpt lat="49.88754" lon="0.89217">
        <ele>26</ele>
        <time>2022-06-16T18:46:18+02:00</time>
      </trkpt>
      <trkpt lat="49.88737" lon="0.8924">
        <ele>25</ele>
        <time>2022-06-16T18:46:34+02:00</time>
      </trkpt>
      <trkpt lat="49.88704" lon="0.89289">
        <ele>24</ele>
        <time>2022-06-16T18:47:01+02:00</time>
      </trkpt>
      <trkpt lat="49.88686" lon="0.89313">
        <ele>23</ele>
        <time>2022-06-16T18:47:19+02:00</time>
      </trkpt>
      <trkpt lat="49.88667" lon="0.89336">
        <ele>22</ele>
        <time>2022-06-16T18:47:36+02:00</time>
      </trkpt>
      <trkpt lat="49.88651" lon="0.89359">
        <ele>22</ele>
        <time>2022-06-16T18:47:53+02:00</time>
      </trkpt>
      <trkpt lat="49.88633" lon="0.89386">
        <ele>23</ele>
        <time>2022-06-16T18:48:09+02:00</time>
      </trkpt>
      <trkpt lat="49.88617" lon="0.89412">
        <ele>24</ele>
        <time>2022-06-16T18:48:25+02:00</time>
      </trkpt>
      <trkpt lat="49.88599" lon="0.89433">
        <ele>24</ele>
        <time>2022-06-16T18:48:40+02:00</time>
      </trkpt>
      <trkpt lat="49.88582" lon="0.89457">
        <ele>25</ele>
        <time>2022-06-16T18:48:55+02:00</time>
      </trkpt>
      <trkpt lat="49.88568" lon="0.89485">
        <ele>26</ele>
        <time>2022-06-16T18:49:12+02:00</time>
      </trkpt>
      <trkpt lat="49.88548" lon="0.89502">
        <ele>25</ele>
        <time>2022-06-16T18:49:29+02:00</time>
      </trkpt>
      <trkpt lat="49.88527" lon="0.89517">
        <ele>23</ele>
        <time>2022-06-16T18:49:45+02:00</time>
      </trkpt>
      <trkpt lat="49.88503" lon="0.89519">
        <ele>21</ele>
        <time>2022-06-16T18:50:04+02:00</time>
      </trkpt>
      <trkpt lat="49.8848" lon="0.89529">
        <ele>18</ele>
        <time>2022-06-16T18:50:23+02:00</time>
      </trkpt>
      <trkpt lat="49.88488" lon="0.89562">
        <ele>18</ele>
        <time>2022-06-16T18:51:14+02:00</time>
      </trkpt>
      <trkpt lat="49.88514" lon="0.8962">
        <ele>20</ele>
        <time>2022-06-16T18:51:46+02:00</time>
      </trkpt>
      <trkpt lat="49.88529" lon="0.89647">
        <ele>21</ele>
        <time>2022-06-16T18:52:02+02:00</time>
      </trkpt>
      <trkpt lat="49.88545" lon="0.89674">
        <ele>23</ele>
        <time>2022-06-16T18:52:19+02:00</time>
      </trkpt>
      <trkpt lat="49.88562" lon="0.89698">
        <ele>24</ele>
        <time>2022-06-16T18:52:35+02:00</time>
      </trkpt>
      <trkpt lat="49.88579" lon="0.89722">
        <ele>24</ele>
        <time>2022-06-16T18:52:52+02:00</time>
      </trkpt>
      <trkpt lat="49.88598" lon="0.89742">
        <ele>25</ele>
        <time>2022-06-16T18:53:08+02:00</time>
      </trkpt>
      <trkpt lat="49.88617" lon="0.89766">
        <ele>25</ele>
        <time>2022-06-16T18:53:25+02:00</time>
      </trkpt>
      <trkpt lat="49.88639" lon="0.89781">
        <ele>26</ele>
        <time>2022-06-16T18:53:43+02:00</time>
      </trkpt>
      <trkpt lat="49.88657" lon="0.89802">
        <ele>26</ele>
        <time>2022-06-16T18:54:00+02:00</time>
      </trkpt>
      <trkpt lat="49.88679" lon="0.89814">
        <ele>27</ele>
        <time>2022-06-16T18:54:18+02:00</time>
      </trkpt>
      <trkpt lat="49.88701" lon="0.89826">
        <ele>27</ele>
        <time>2022-06-16T18:54:34+02:00</time>
      </trkpt>
      <trkpt lat="49.88722" lon="0.89838">
        <ele>27</ele>
        <time>2022-06-16T18:54:49+02:00</time>
      </trkpt>
      <trkpt lat="49.88741" lon="0.89857">
        <ele>28</ele>
        <time>2022-06-16T18:55:07+02:00</time>
      </trkpt>
      <trkpt lat="49.8876" lon="0.89878">
        <ele>29</ele>
        <time>2022-06-16T18:55:23+02:00</time>
      </trkpt>
      <trkpt lat="49.88777" lon="0.89901">
        <ele>30</ele>
        <time>2022-06-16T18:55:42+02:00</time>
      </trkpt>
      <trkpt lat="49.88794" lon="0.89924">
        <ele>30</ele>
        <time>2022-06-16T18:56:01+02:00</time>
      </trkpt>
      <trkpt lat="49.88812" lon="0.89947">
        <ele>31</ele>
        <time>2022-06-16T18:56:17+02:00</time>
      </trkpt>
      <trkpt lat="49.88829" lon="0.89969">
        <ele>32</ele>
        <time>2022-06-16T18:56:37+02:00</time>
      </trkpt>
      <trkpt lat="49.88846" lon="0.89993">
        <ele>32</ele>
        <time>2022-06-16T18:56:54+02:00</time>
      </trkpt>
      <trkpt lat="49.88864" lon="0.90015">
        <ele>33</ele>
        <time>2022-06-16T18:57:11+02:00</time>
      </trkpt>
      <trkpt lat="49.88882" lon="0.90037">
        <ele>34</ele>
        <time>2022-06-16T18:57:31+02:00</time>
      </trkpt>
      <trkpt lat="49.889" lon="0.90058">
        <ele>35</ele>
        <time>2022-06-16T18:57:51+02:00</time>
      </trkpt>
      <trkpt lat="49.8892" lon="0.90078">
        <ele>36</ele>
        <time>2022-06-16T18:58:11+02:00</time>
      </trkpt>
      <trkpt lat="49.88939" lon="0.90098">
        <ele>36</ele>
        <time>2022-06-16T18:58:29+02:00</time>
      </trkpt>
      <trkpt lat="49.88955" lon="0.90123">
        <ele>36</ele>
        <time>2022-06-16T18:58:49+02:00</time>
      </trkpt>
      <trkpt lat="49.88973" lon="0.90149">
        <ele>36</ele>
        <time>2022-06-16T18:59:07+02:00</time>
      </trkpt>
      <trkpt lat="49.88991" lon="0.90173">
        <ele>36</ele>
        <time>2022-06-16T18:59:25+02:00</time>
      </trkpt>
      <trkpt lat="49.89009" lon="0.90197">
        <ele>36</ele>
        <time>2022-06-16T18:59:43+02:00</time>
      </trkpt>
      <trkpt lat="49.89027" lon="0.90218">
        <ele>36</ele>
        <time>2022-06-16T19:00:00+02:00</time>
      </trkpt>
      <trkpt lat="49.89045" lon="0.9024">
        <ele>36</ele>
        <time>2022-06-16T19:00:15+02:00</time>
      </trkpt>
      <trkpt lat="49.89064" lon="0.9026">
        <ele>36</ele>
        <time>2022-06-16T19:00:33+02:00</time>
      </trkpt>
      <trkpt lat="49.89081" lon="0.90285">
        <ele>36</ele>
        <time>2022-06-16T19:00:50+02:00</time>
      </trkpt>
      <trkpt lat="49.89099" lon="0.90308">
        <ele>37</ele>
        <time>2022-06-16T19:01:08+02:00</time>
      </trkpt>
      <trkpt lat="49.89115" lon="0.90332">
        <ele>37</ele>
        <time>2022-06-16T19:01:26+02:00</time>
      </trkpt>
      <trkpt lat="49.89135" lon="0.90351">
        <ele>37</ele>
        <time>2022-06-16T19:01:43+02:00</time>
      </trkpt>
      <trkpt lat="49.89151" lon="0.90378">
        <ele>37</ele>
        <time>2022-06-16T19:01:58+02:00</time>
      </trkpt>
      <trkpt lat="49.89169" lon="0.90402">
        <ele>37</ele>
        <time>2022-06-16T19:02:15+02:00</time>
      </trkpt>
      <trkpt lat="49.89186" lon="0.90424">
        <ele>37</ele>
        <time>2022-06-16T19:02:32+02:00</time>
      </trkpt>
      <trkpt lat="49.89205" lon="0.90444">
        <ele>38</ele>
        <time>2022-06-16T19:02:50+02:00</time>
      </trkpt>
      <trkpt lat="49.89223" lon="0.90468">
        <ele>38</ele>
        <time>2022-06-16T19:03:06+02:00</time>
      </trkpt>
      <trkpt lat="49.8924" lon="0.90492">
        <ele>38</ele>
        <time>2022-06-16T19:03:24+02:00</time>
      </trkpt>
      <trkpt lat="49.89261" lon="0.9051">
        <ele>38</ele>
        <time>2022-06-16T19:03:42+02:00</time>
      </trkpt>
      <trkpt lat="49.8928" lon="0.90532">
        <ele>39</ele>
        <time>2022-06-16T19:03:59+02:00</time>
      </trkpt>
      <trkpt lat="49.89297" lon="0.90556">
        <ele>40</ele>
        <time>2022-06-16T19:04:16+02:00</time>
      </trkpt>
      <trkpt lat="49.89315" lon="0.90578">
        <ele>40</ele>
        <time>2022-06-16T19:04:35+02:00</time>
      </trkpt>
      <trkpt lat="49.89348" lon="0.90626">
        <ele>40</ele>
        <time>2022-06-16T19:05:08+02:00</time>
      </trkpt>
      <trkpt lat="49.89367" lon="0.90647">
        <ele>40</ele>
        <time>2022-06-16T19:05:24+02:00</time>
      </trkpt>
      <trkpt lat="49.89385" lon="0.90671">
        <ele>41</ele>
        <time>2022-06-16T19:05:41+02:00</time>
      </trkpt>
      <trkpt lat="49.89403" lon="0.90697">
        <ele>41</ele>
        <time>2022-06-16T19:05:59+02:00</time>
      </trkpt>
      <trkpt lat="49.89421" lon="0.90718">
        <ele>41</ele>
        <time>2022-06-16T19:06:21+02:00</time>
      </trkpt>
      <trkpt lat="49.89443" lon="0.9071">
        <ele>41</ele>
        <time>2022-06-16T19:06:43+02:00</time>
      </trkpt>
      <trkpt lat="49.89461" lon="0.90686">
        <ele>41</ele>
        <time>2022-06-16T19:07:01+02:00</time>
      </trkpt>
      <trkpt lat="49.89477" lon="0.90662">
        <ele>40</ele>
        <time>2022-06-16T19:07:15+02:00</time>
      </trkpt>
      <trkpt lat="49.89493" lon="0.90637">
        <ele>40</ele>
        <time>2022-06-16T19:07:33+02:00</time>
      </trkpt>
      <trkpt lat="49.8951" lon="0.90611">
        <ele>40</ele>
        <time>2022-06-16T19:07:49+02:00</time>
      </trkpt>
      <trkpt lat="49.89526" lon="0.90584">
        <ele>40</ele>
        <time>2022-06-16T19:08:09+02:00</time>
      </trkpt>
      <trkpt lat="49.89542" lon="0.90559">
        <ele>39</ele>
        <time>2022-06-16T19:08:25+02:00</time>
      </trkpt>
      <trkpt lat="49.89557" lon="0.90531">
        <ele>39</ele>
        <time>2022-06-16T19:08:44+02:00</time>
      </trkpt>
      <trkpt lat="49.89575" lon="0.90507">
        <ele>39</ele>
        <time>2022-06-16T19:09:00+02:00</time>
      </trkpt>
      <trkpt lat="49.89594" lon="0.90488">
        <ele>39</ele>
        <time>2022-06-16T19:09:16+02:00</time>
      </trkpt>
      <trkpt lat="49.89617" lon="0.90479">
        <ele>39</ele>
        <time>2022-06-16T19:09:34+02:00</time>
      </trkpt>
      <trkpt lat="49.89638" lon="0.90495">
        <ele>39</ele>
        <time>2022-06-16T19:09:49+02:00</time>
      </trkpt>
      <trkpt lat="49.89652" lon="0.90524">
        <ele>39</ele>
        <time>2022-06-16T19:10:07+02:00</time>
      </trkpt>
      <trkpt lat="49.89663" lon="0.90556">
        <ele>39</ele>
        <time>2022-06-16T19:10:24+02:00</time>
      </trkpt>
      <trkpt lat="49.89675" lon="0.90587">
        <ele>39</ele>
        <time>2022-06-16T19:10:42+02:00</time>
      </trkpt>
      <trkpt lat="49.89688" lon="0.90616">
        <ele>39</ele>
        <time>2022-06-16T19:11:00+02:00</time>
      </trkpt>
      <trkpt lat="49.89706" lon="0.90638">
        <ele>39</ele>
        <time>2022-06-16T19:11:18+02:00</time>
      </trkpt>
      <trkpt lat="49.89722" lon="0.90663">
        <ele>38</ele>
        <time>2022-06-16T19:11:39+02:00</time>
      </trkpt>
      <trkpt lat="49.89737" lon="0.90691">
        <ele>38</ele>
        <time>2022-06-16T19:11:57+02:00</time>
      </trkpt>
      <trkpt lat="49.89751" lon="0.90722">
        <ele>39</ele>
        <time>2022-06-16T19:12:15+02:00</time>
      </trkpt>
      <trkpt lat="49.89766" lon="0.90749">
        <ele>39</ele>
        <time>2022-06-16T19:12:33+02:00</time>
      </trkpt>
      <trkpt lat="49.89778" lon="0.90778">
        <ele>38</ele>
        <time>2022-06-16T19:12:49+02:00</time>
      </trkpt>
      <trkpt lat="49.89792" lon="0.90806">
        <ele>37</ele>
        <time>2022-06-16T19:13:06+02:00</time>
      </trkpt>
      <trkpt lat="49.89807" lon="0.90833">
        <ele>36</ele>
        <time>2022-06-16T19:13:23+02:00</time>
      </trkpt>
      <trkpt lat="49.89821" lon="0.90862">
        <ele>37</ele>
        <time>2022-06-16T19:13:42+02:00</time>
      </trkpt>
      <trkpt lat="49.89836" lon="0.90889">
        <ele>37</ele>
        <time>2022-06-16T19:13:59+02:00</time>
      </trkpt>
      <trkpt lat="49.89849" lon="0.90919">
        <ele>38</ele>
        <time>2022-06-16T19:14:16+02:00</time>
      </trkpt>
      <trkpt lat="49.89862" lon="0.90949">
        <ele>38</ele>
        <time>2022-06-16T19:14:34+02:00</time>
      </trkpt>
      <trkpt lat="49.89877" lon="0.90976">
        <ele>38</ele>
        <time>2022-06-16T19:14:57+02:00</time>
      </trkpt>
      <trkpt lat="49.89889" lon="0.91006">
        <ele>38</ele>
        <time>2022-06-16T19:15:13+02:00</time>
      </trkpt>
      <trkpt lat="49.89918" lon="0.91061">
        <ele>38</ele>
        <time>2022-06-16T19:15:48+02:00</time>
      </trkpt>
      <trkpt lat="49.89933" lon="0.91088">
        <ele>38</ele>
        <time>2022-06-16T19:16:07+02:00</time>
      </trkpt>
      <trkpt lat="49.89948" lon="0.91115">
        <ele>37</ele>
        <time>2022-06-16T19:16:24+02:00</time>
      </trkpt>
      <trkpt lat="49.89962" lon="0.91143">
        <ele>37</ele>
        <time>2022-06-16T19:16:43+02:00</time>
      </trkpt>
      <trkpt lat="49.89975" lon="0.91173">
        <ele>37</ele>
        <time>2022-06-16T19:17:00+02:00</time>
      </trkpt>
      <trkpt lat="49.89988" lon="0.91202">
        <ele>37</ele>
        <time>2022-06-16T19:17:17+02:00</time>
      </trkpt>
      <trkpt lat="49.90002" lon="0.91231">
        <ele>37</ele>
        <time>2022-06-16T19:17:34+02:00</time>
      </trkpt>
      <trkpt lat="49.90018" lon="0.91258">
        <ele>36</ele>
        <time>2022-06-16T19:17:52+02:00</time>
      </trkpt>
      <trkpt lat="49.90033" lon="0.91286">
        <ele>36</ele>
        <time>2022-06-16T19:18:11+02:00</time>
      </trkpt>
      <trkpt lat="49.90046" lon="0.91314">
        <ele>35</ele>
        <time>2022-06-16T19:18:26+02:00</time>
      </trkpt>
      <trkpt lat="49.90049" lon="0.9135">
        <ele>34</ele>
        <time>2022-06-16T19:18:49+02:00</time>
      </trkpt>
      <trkpt lat="49.90029" lon="0.91364">
        <ele>35</ele>
        <time>2022-06-16T19:19:06+02:00</time>
      </trkpt>
      <trkpt lat="49.90004" lon="0.91363">
        <ele>36</ele>
        <time>2022-06-16T19:19:23+02:00</time>
      </trkpt>
      <trkpt lat="49.89982" lon="0.91367">
        <ele>37</ele>
        <time>2022-06-16T19:19:40+02:00</time>
      </trkpt>
      <trkpt lat="49.8996" lon="0.91382">
        <ele>38</ele>
        <time>2022-06-16T19:19:58+02:00</time>
      </trkpt>
      <trkpt lat="49.89941" lon="0.914">
        <ele>39</ele>
        <time>2022-06-16T19:20:15+02:00</time>
      </trkpt>
      <trkpt lat="49.89922" lon="0.91423">
        <ele>40</ele>
        <time>2022-06-16T19:20:32+02:00</time>
      </trkpt>
      <trkpt lat="49.89909" lon="0.91454">
        <ele>40</ele>
        <time>2022-06-16T19:20:51+02:00</time>
      </trkpt>
      <trkpt lat="49.8989" lon="0.91477">
        <ele>41</ele>
        <time>2022-06-16T19:21:09+02:00</time>
      </trkpt>
      <trkpt lat="49.89906" lon="0.91504">
        <ele>40</ele>
        <time>2022-06-16T19:21:33+02:00</time>
      </trkpt>
      <trkpt lat="49.8992" lon="0.91533">
        <ele>41</ele>
        <time>2022-06-16T19:21:52+02:00</time>
      </trkpt>
      <trkpt lat="49.89933" lon="0.91563">
        <ele>42</ele>
        <time>2022-06-16T19:22:09+02:00</time>
      </trkpt>
      <trkpt lat="49.89949" lon="0.91591">
        <ele>42</ele>
        <time>2022-06-16T19:22:26+02:00</time>
      </trkpt>
      <trkpt lat="49.89973" lon="0.9165">
        <ele>44</ele>
        <time>2022-06-16T19:23:06+02:00</time>
      </trkpt>
      <trkpt lat="49.89983" lon="0.91683">
        <ele>46</ele>
        <time>2022-06-16T19:23:22+02:00</time>
      </trkpt>
      <trkpt lat="49.89997" lon="0.91714">
        <ele>49</ele>
        <time>2022-06-16T19:23:41+02:00</time>
      </trkpt>
      <trkpt lat="49.90016" lon="0.91736">
        <ele>50</ele>
        <time>2022-06-16T19:24:00+02:00</time>
      </trkpt>
      <trkpt lat="49.90035" lon="0.91757">
        <ele>52</ele>
        <time>2022-06-16T19:24:19+02:00</time>
      </trkpt>
      <trkpt lat="49.90055" lon="0.91775">
        <ele>52</ele>
        <time>2022-06-16T19:24:40+02:00</time>
      </trkpt>
      <trkpt lat="49.90073" lon="0.91797">
        <ele>53</ele>
        <time>2022-06-16T19:24:59+02:00</time>
      </trkpt>
      <trkpt lat="49.90088" lon="0.91824">
        <ele>54</ele>
        <time>2022-06-16T19:25:25+02:00</time>
      </trkpt>
      <trkpt lat="49.901" lon="0.91856">
        <ele>54</ele>
        <time>2022-06-16T19:25:51+02:00</time>
      </trkpt>
      <trkpt lat="49.90116" lon="0.91883">
        <ele>53</ele>
        <time>2022-06-16T19:26:12+02:00</time>
      </trkpt>
      <trkpt lat="49.90133" lon="0.91906">
        <ele>52</ele>
        <time>2022-06-16T19:26:34+02:00</time>
      </trkpt>
      <trkpt lat="49.90151" lon="0.91929">
        <ele>50</ele>
        <time>2022-06-16T19:27:01+02:00</time>
      </trkpt>
      <trkpt lat="49.90178" lon="0.91984">
        <ele>45</ele>
        <time>2022-06-16T19:27:45+02:00</time>
      </trkpt>
      <trkpt lat="49.90184" lon="0.92018">
        <ele>42</ele>
        <time>2022-06-16T19:28:10+02:00</time>
      </trkpt>
      <trkpt lat="49.90203" lon="0.9204">
        <ele>39</ele>
        <time>2022-06-16T19:28:30+02:00</time>
      </trkpt>
      <trkpt lat="49.9022" lon="0.92064">
        <ele>36</ele>
        <time>2022-06-16T19:28:51+02:00</time>
      </trkpt>
      <trkpt lat="49.90234" lon="0.92092">
        <ele>35</ele>
        <time>2022-06-16T19:29:19+02:00</time>
      </trkpt>
      <trkpt lat="49.90252" lon="0.92116">
        <ele>33</ele>
        <time>2022-06-16T19:29:37+02:00</time>
      </trkpt>
      <trkpt lat="49.90271" lon="0.92139">
        <ele>32</ele>
        <time>2022-06-16T19:30:01+02:00</time>
      </trkpt>
      <trkpt lat="49.90293" lon="0.9215">
        <ele>30</ele>
        <time>2022-06-16T19:30:17+02:00</time>
      </trkpt>
      <trkpt lat="49.90313" lon="0.92168">
        <ele>28</ele>
        <time>2022-06-16T19:30:34+02:00</time>
      </trkpt>
      <trkpt lat="49.90336" lon="0.92175">
        <ele>26</ele>
        <time>2022-06-16T19:30:54+02:00</time>
      </trkpt>
      <trkpt lat="49.90356" lon="0.92192">
        <ele>23</ele>
        <time>2022-06-16T19:31:14+02:00</time>
      </trkpt>
      <trkpt lat="49.90375" lon="0.92212">
        <ele>20</ele>
        <time>2022-06-16T19:31:33+02:00</time>
      </trkpt>
      <trkpt lat="49.90391" lon="0.92237">
        <ele>17</ele>
        <time>2022-06-16T19:31:53+02:00</time>
      </trkpt>
      <trkpt lat="49.90406" lon="0.92265">
        <ele>14</ele>
        <time>2022-06-16T19:32:11+02:00</time>
      </trkpt>
      <trkpt lat="49.90425" lon="0.92284">
        <ele>11</ele>
        <time>2022-06-16T19:32:36+02:00</time>
      </trkpt>
      <trkpt lat="49.90443" lon="0.92307">
        <ele>9</ele>
        <time>2022-06-16T19:33:07+02:00</time>
      </trkpt>
      <trkpt lat="49.90459" lon="0.92331">
        <ele>7</ele>
        <time>2022-06-16T19:34:44+02:00</time>
      </trkpt>
      <trkpt lat="49.90465" lon="0.92366">
        <ele>6</ele>
        <time>2022-06-16T19:35:03+02:00</time>
      </trkpt>
      <trkpt lat="49.90472" lon="0.92399">
        <ele>6</ele>
        <time>2022-06-16T19:35:27+02:00</time>
      </trkpt>
      <trkpt lat="49.90529" lon="0.92523">
        <ele>2</ele>
        <time>2022-06-16T20:36:44+02:00</time>
      </trkpt>
      <trkpt lat="49.90537" lon="0.92556">
        <ele>2</ele>
        <time>2022-06-16T20:37:09+02:00</time>
      </trkpt>
      <trkpt lat="49.90545" lon="0.92589">
        <ele>2</ele>
        <time>2022-06-16T20:37:32+02:00</time>
      </trkpt>
    </trkseg>
  </trk>
</gpx>